Time;durP1;ratioP1;P1;durP2;ratioP2;P2;SDS_P1;SDS_P2;PMS_P1;PMS_P2;Temp;Humidity;BMP_temperature;BMP_pressure;BME280_temperature;BME280_humidity;BME280_pressure;Samples;Min_cycle;Max_cycle;Signal;HPM_P1;HPM_P2
2022/08/30 00:02:55;;;;;;;2.80;1.85;;;19.40;52.40;;;;;;5026871;28;20025;-91
2022/08/30 00:05:21;;;;;;;2.30;1.40;;;19.40;52.40;;;;;;5003486;28;20037;-91
2022/08/30 00:07:49;;;;;;;2.55;1.50;;;19.30;52.30;;;;;;4993488;28;20198;-91
2022/08/30 00:10:15;;;;;;;4.10;1.70;;;19.30;52.40;;;;;;5017539;28;20109;-90
2022/08/30 00:12:42;;;;;;;2.00;1.63;;;19.30;52.50;;;;;;4991807;28;20132;-90
2022/08/30 00:15:10;;;;;;;3.13;1.80;;;19.30;52.60;;;;;;5021783;28;20120;-88
2022/08/30 00:17:36;;;;;;;3.40;1.90;;;19.20;52.50;;;;;;5020885;28;20034;-87
2022/08/30 00:20:09;;;;;;;2.22;1.65;;;19.20;52.60;;;;;;5015228;28;20463;-92
2022/08/30 00:22:36;;;;;;;2.20;1.45;;;19.20;52.70;;;;;;5012207;28;20037;-88
2022/08/30 00:25:03;;;;;;;2.22;1.50;;;19.20;52.70;;;;;;5022316;28;20013;-88
2022/08/30 00:27:29;;;;;;;2.33;1.70;;;19.20;52.80;;;;;;5016687;28;20030;-93
2022/08/30 00:29:56;;;;;;;2.45;1.48;;;19.10;52.70;;;;;;5028452;28;20025;-92
2022/08/30 00:32:22;;;;;;;2.25;1.83;;;19.10;52.70;;;;;;5021251;28;20039;-93
2022/08/30 00:34:50;;;;;;;1.55;1.23;;;19.10;52.80;;;;;;5020451;28;20056;-89
2022/08/30 00:37:16;;;;;;;2.60;1.50;;;19.00;52.70;;;;;;5034741;28;20029;-90
2022/08/30 00:39:42;;;;;;;2.90;1.50;;;19.00;52.80;;;;;;5021166;28;20072;-89
2022/08/30 00:42:09;;;;;;;2.47;1.67;;;19.00;52.90;;;;;;5003900;28;20045;-91
2022/08/30 00:44:35;;;;;;;5.00;1.40;;;19.00;52.90;;;;;;5037721;28;20036;-89
2022/08/30 00:47:01;;;;;;;1.65;1.27;;;19.00;53.00;;;;;;5032928;28;20496;-92
2022/08/30 00:49:28;;;;;;;3.55;2.10;;;18.90;52.90;;;;;;5019109;28;20108;-92
2022/08/30 00:51:56;;;;;;;3.78;1.98;;;18.90;53.00;;;;;;5013452;28;20049;-93
2022/08/30 00:54:24;;;;;;;2.17;1.70;;;18.90;53.10;;;;;;4996504;28;20025;-92
2022/08/30 00:56:51;;;;;;;2.78;1.58;;;18.90;53.20;;;;;;5019319;28;20037;-92
2022/08/30 00:59:18;;;;;;;3.40;1.45;;;18.80;53.10;;;;;;5017781;28;20171;-92
2022/08/30 01:01:45;;;;;;;3.03;1.52;;;18.80;53.20;;;;;;5029905;28;20044;-88
2022/08/30 01:04:13;;;;;;;2.20;1.52;;;18.80;53.20;;;;;;5010215;28;20029;-89
2022/08/30 01:06:40;;;;;;;1.98;1.50;;;18.70;53.70;;;;;;5007380;28;20067;-89
2022/08/30 01:09:07;;;;;;;4.57;1.65;;;18.70;53.20;;;;;;5025986;28;20018;-93
2022/08/30 01:11:36;;;;;;;2.08;1.45;;;18.70;53.30;;;;;;5014791;28;20041;-92
2022/08/30 01:14:04;;;;;;;6.70;2.88;;;18.70;53.40;;;;;;5017878;28;20037;-92
2022/08/30 01:16:34;;;;;;;3.58;2.03;;;18.60;53.30;;;;;;5020121;28;20422;-92
2022/08/30 01:19:00;;;;;;;2.50;1.80;;;18.60;53.40;;;;;;5025703;28;20026;-91
2022/08/30 01:21:45;;;;;;;3.05;1.85;;;18.60;53.40;;;;;;5031070;28;20036;-91
2022/08/30 01:24:12;;;;;;;2.08;1.85;;;18.50;53.50;;;;;;5013257;28;20029;-89
2022/08/30 01:26:38;;;;;;;3.95;2.03;;;18.50;53.40;;;;;;5021953;28;20029;-91
2022/08/30 01:29:09;;;;;;;6.10;2.10;;;18.50;53.50;;;;;;5004287;28;20021;-92
2022/08/30 01:31:35;;;;;;;3.28;1.40;;;18.40;53.50;;;;;;5002140;28;20034;-92
2022/08/30 01:34:06;;;;;;;2.55;1.40;;;18.40;53.50;;;;;;5030953;28;20037;-90
2022/08/30 01:36:36;;;;;;;4.00;2.17;;;18.40;53.70;;;;;;5017190;28;20511;-90
2022/08/30 01:39:03;;;;;;;3.30;1.80;;;18.30;53.60;;;;;;5015443;28;20049;-90
2022/08/30 01:41:33;;;;;;;5.65;2.65;;;18.30;53.60;;;;;;4982910;28;20033;-92
2022/08/30 01:44:03;;;;;;;3.53;1.63;;;18.30;53.80;;;;;;5014945;28;20710;-91
2022/08/30 01:46:34;;;;;;;2.30;1.55;;;18.20;53.70;;;;;;5012969;28;20038;-89
2022/08/30 01:49:06;;;;;;;2.72;2.15;;;18.20;53.80;;;;;;5011443;28;20069;-88
2022/08/30 01:51:32;;;;;;;4.90;2.55;;;18.20;53.80;;;;;;5030296;28;20047;-91
2022/08/30 01:53:59;;;;;;;2.80;1.45;;;18.10;54.30;;;;;;5015655;28;20022;-86
2022/08/30 01:56:27;;;;;;;3.20;1.67;;;18.10;53.80;;;;;;5010862;28;20035;-89
2022/08/30 01:58:54;;;;;;;2.75;1.48;;;18.10;53.90;;;;;;5029644;28;20025;-88
2022/08/30 02:01:23;;;;;;;2.50;1.70;;;18.10;54.60;;;;;;5010353;28;20048;-90
2022/08/30 02:03:49;;;;;;;3.78;1.70;;;18.00;53.90;;;;;;5016564;28;20777;-89
2022/08/30 02:06:17;;;;;;;3.63;1.60;;;18.00;53.90;;;;;;5030751;28;20037;-90
2022/08/30 02:08:44;;;;;;;3.58;1.63;;;18.00;54.10;;;;;;5017632;28;20029;-89
2022/08/30 02:11:11;;;;;;;4.43;2.00;;;18.00;54.10;;;;;;5020190;28;20457;-89
2022/08/30 02:13:38;;;;;;;3.58;1.40;;;18.00;54.20;;;;;;5017815;28;20040;-91
2022/08/30 02:16:11;;;;;;;3.35;1.90;;;17.90;54.10;;;;;;5027052;28;20073;-89
2022/08/30 02:18:40;;;;;;;3.33;1.58;;;17.90;54.20;;;;;;5030103;28;20055;-90
2022/08/30 02:21:07;;;;;;;3.03;1.70;;;17.90;54.20;;;;;;5030724;28;20040;-91
2022/08/30 02:23:33;;;;;;;1.75;1.40;;;17.90;54.30;;;;;;5028210;28;20029;-90
2022/08/30 02:26:00;;;;;;;4.00;1.98;;;17.90;54.40;;;;;;5024127;28;20094;-91
2022/08/30 02:28:26;;;;;;;3.28;1.60;;;17.90;54.50;;;;;;5033595;28;20044;-91
2022/08/30 02:30:52;;;;;;;3.35;1.50;;;17.80;54.30;;;;;;5033438;28;20053;-90
2022/08/30 02:33:19;;;;;;;4.47;2.10;;;17.80;54.30;;;;;;5018335;28;20042;-91
2022/08/30 02:35:44;;;;;;;2.60;1.95;;;17.80;54.50;;;;;;5028901;28;20018;-92
2022/08/30 02:38:12;;;;;;;3.13;1.83;;;17.80;54.50;;;;;;5033046;28;20022;-90
2022/08/30 02:40:38;;;;;;;4.10;2.65;;;17.70;54.50;;;;;;5029446;28;20053;-89
2022/08/30 02:43:04;;;;;;;3.63;2.20;;;17.70;54.50;;;;;;5032685;28;20124;-91
2022/08/30 02:45:30;;;;;;;2.58;2.03;;;17.70;54.60;;;;;;5021565;28;20211;-92
2022/08/30 02:47:56;;;;;;;3.55;2.20;;;17.70;54.70;;;;;;5021611;28;20134;-93
2022/08/30 02:50:23;;;;;;;2.97;1.90;;;17.60;54.60;;;;;;5035496;28;20091;-93
2022/08/30 02:52:49;;;;;;;3.13;1.83;;;17.60;54.70;;;;;;5035907;28;20136;-91
2022/08/30 02:55:16;;;;;;;2.42;1.30;;;17.60;54.80;;;;;;5030408;28;20108;-92
2022/08/30 02:57:43;;;;;;;3.67;1.92;;;17.50;54.70;;;;;;5033172;28;20021;-90
2022/08/30 03:00:13;;;;;;;2.88;1.38;;;17.50;54.70;;;;;;5020247;28;20094;-88
2022/08/30 03:02:40;;;;;;;2.70;1.50;;;17.50;54.90;;;;;;5032001;28;20117;-90
2022/08/30 03:05:08;;;;;;;3.38;1.63;;;17.50;54.90;;;;;;5029248;28;20059;-90
2022/08/30 03:07:34;;;;;;;2.28;1.40;;;17.40;54.80;;;;;;5016133;28;20032;-87
2022/08/30 03:10:00;;;;;;;2.45;1.48;;;17.40;54.90;;;;;;5030293;28;20029;-91
2022/08/30 03:12:26;;;;;;;1.88;1.38;;;17.40;55.00;;;;;;5018276;28;20032;-88
2022/08/30 03:14:52;;;;;;;1.83;1.17;;;17.40;55.10;;;;;;5028103;28;20081;-89
2022/08/30 03:17:18;;;;;;;2.33;1.85;;;17.40;55.10;;;;;;5015381;28;20088;-88
2022/08/30 03:19:45;;;;;;;2.38;1.23;;;17.30;55.10;;;;;;5010621;28;20033;-90
2022/08/30 03:22:11;;;;;;;4.10;1.65;;;17.30;55.40;;;;;;5006130;28;20170;-89
2022/08/30 03:24:37;;;;;;;2.17;1.70;;;17.30;55.20;;;;;;5004504;28;20053;-87
2022/08/30 03:27:03;;;;;;;3.25;1.73;;;17.20;55.10;;;;;;4998362;28;20053;-89
2022/08/30 03:29:30;;;;;;;3.63;1.83;;;17.20;55.10;;;;;;5018300;28;20171;-89
2022/08/30 03:31:56;;;;;;;2.10;1.25;;;17.20;55.20;;;;;;5030728;28;20046;-88
2022/08/30 03:34:25;;;;;;;5.07;1.67;;;17.20;55.30;;;;;;5009225;28;20029;-91
2022/08/30 03:36:53;;;;;;;2.00;1.70;;;17.20;55.40;;;;;;5034744;28;20167;-91
2022/08/30 03:39:20;;;;;;;3.30;1.92;;;17.10;55.20;;;;;;5011838;28;20029;-93
2022/08/30 03:41:46;;;;;;;2.00;1.40;;;17.10;55.30;;;;;;5000423;28;20112;-95
2022/08/30 03:44:13;;;;;;;2.13;1.40;;;17.10;55.30;;;;;;5021782;28;20145;-93
2022/08/30 03:46:39;;;;;;;1.65;1.27;;;17.10;55.40;;;;;;5019755;28;20170;-93
2022/08/30 03:49:07;;;;;;;3.75;1.60;;;17.10;55.50;;;;;;5004519;28;20033;-92
2022/08/30 03:51:33;;;;;;;2.08;1.88;;;17.10;55.60;;;;;;5012356;28;20049;-92
2022/08/30 03:54:00;;;;;;;2.22;1.48;;;17.00;55.40;;;;;;5007251;28;20067;-91
2022/08/30 03:56:27;;;;;;;3.72;1.85;;;17.00;55.50;;;;;;5031861;28;20128;-93
2022/08/30 03:58:53;;;;;;;2.35;1.83;;;16.90;55.40;;;;;;5022614;28;20025;-91
2022/08/30 04:01:19;;;;;;;2.88;1.58;;;17.00;55.70;;;;;;5006993;28;20060;-93
2022/08/30 04:03:45;;;;;;;2.17;1.70;;;16.90;55.60;;;;;;5031981;28;20332;-91
2022/08/30 04:06:11;;;;;;;2.45;1.80;;;16.90;55.60;;;;;;5025097;28;20377;-92
2022/08/30 04:08:37;;;;;;;2.65;1.50;;;16.90;55.60;;;;;;5033106;28;20037;-92
2022/08/30 04:11:04;;;;;;;4.30;2.22;;;16.80;55.60;;;;;;5020373;28;20030;-89
2022/08/30 04:13:30;;;;;;;3.20;1.30;;;16.90;55.80;;;;;;5032107;28;20094;-89
2022/08/30 04:15:56;;;;;;;2.10;1.67;;;16.90;55.90;;;;;;5029125;28;20119;-90
2022/08/30 04:18:22;;;;;;;3.08;1.67;;;16.80;55.70;;;;;;5015129;28;20328;-89
2022/08/30 04:20:50;;;;;;;3.65;1.60;;;16.80;55.80;;;;;;5015675;28;20038;-93
2022/08/30 04:23:16;;;;;;;3.08;1.55;;;16.80;55.90;;;;;;4994088;28;20334;-92
2022/08/30 04:25:42;;;;;;;2.08;1.40;;;16.80;56.00;;;;;;5017714;28;20034;-92
2022/08/30 04:28:09;;;;;;;2.33;1.67;;;16.70;55.80;;;;;;5021118;28;20492;-89
2022/08/30 04:30:41;;;;;;;2.88;1.55;;;16.70;55.90;;;;;;5006013;28;20041;-87
2022/08/30 04:33:10;;;;;;;3.25;1.88;;;16.70;56.00;;;;;;5012564;28;20222;-87
2022/08/30 04:35:40;;;;;;;1.98;1.67;;;16.70;55.90;;;;;;5010761;28;20029;-87
2022/08/30 04:38:06;;;;;;;1.63;1.35;;;16.70;56.10;;;;;;5029131;28;20117;-88
2022/08/30 04:40:31;;;;;;;3.20;1.92;;;16.70;56.10;;;;;;5018657;28;20069;-89
2022/08/30 04:42:58;;;;;;;2.75;1.98;;;16.70;56.10;;;;;;5005410;28;20134;-89
2022/08/30 04:45:24;;;;;;;2.38;1.50;;;16.70;56.20;;;;;;5021382;28;20037;-88
2022/08/30 04:47:50;;;;;;;2.42;1.52;;;16.70;56.30;;;;;;5016283;28;20115;-88
2022/08/30 04:50:18;;;;;;;1.90;1.70;;;16.60;56.10;;;;;;4995388;28;20489;-90
2022/08/30 04:52:44;;;;;;;3.67;1.77;;;16.60;56.30;;;;;;4998871;28;20029;-87
2022/08/30 04:55:12;;;;;;;3.50;1.50;;;16.60;56.30;;;;;;4998745;28;20059;-89
2022/08/30 04:57:39;;;;;;;3.38;1.58;;;16.60;56.30;;;;;;4983133;28;20076;-89
2022/08/30 05:00:07;;;;;;;2.58;1.33;;;16.50;56.20;;;;;;5014660;28;20043;-87
2022/08/30 05:02:33;;;;;;;4.25;1.75;;;16.50;56.30;;;;;;5009026;28;20055;-88
2022/08/30 05:07:45;;;;;;;1.88;1.40;;;16.50;56.40;;;;;;5028574;28;20100;-87
2022/08/30 05:10:12;;;;;;;1.40;1.27;;;16.40;56.30;;;;;;5013797;28;20029;-85
2022/08/30 05:12:42;;;;;;;3.50;2.25;;;16.40;56.30;;;;;;5011151;28;20045;-89
2022/08/30 05:15:09;;;;;;;3.58;2.10;;;16.40;56.50;;;;;;5014516;28;20029;-87
2022/08/30 05:17:39;;;;;;;4.78;2.22;;;16.40;56.50;;;;;;5010329;28;20060;-91
2022/08/30 05:20:09;;;;;;;2.90;2.35;;;16.40;56.60;;;;;;5021982;28;20029;-89
2022/08/30 05:22:36;;;;;;;1.95;1.65;;;16.30;56.40;;;;;;5023126;28;20025;-92
2022/08/30 05:25:04;;;;;;;1.38;1.27;;;16.30;56.50;;;;;;5027518;28;20032;-90
2022/08/30 05:27:31;;;;;;;2.50;1.90;;;16.30;56.60;;;;;;4997445;28;20045;-91
2022/08/30 05:29:57;;;;;;;3.00;1.52;;;16.30;57.20;;;;;;4979721;28;20033;-88
2022/08/30 05:32:23;;;;;;;3.00;1.80;;;16.20;56.50;;;;;;4998470;28;20056;-87
2022/08/30 05:34:49;;;;;;;2.28;2.08;;;16.30;56.70;;;;;;5018295;28;20101;-90
2022/08/30 05:37:15;;;;;;;2.05;1.73;;;16.30;56.80;;;;;;5027671;28;20088;-91
2022/08/30 05:39:41;;;;;;;2.00;1.52;;;16.20;56.70;;;;;;5023305;28;20021;-85
2022/08/30 05:42:07;;;;;;;2.70;1.55;;;16.20;56.70;;;;;;5025102;28;20326;-88
2022/08/30 05:44:33;;;;;;;3.10;1.90;;;16.20;56.70;;;;;;5025674;28;20040;-85
2022/08/30 05:46:59;;;;;;;3.67;2.00;;;16.20;56.80;;;;;;5023624;28;20064;-92
2022/08/30 05:49:26;;;;;;;3.25;1.75;;;16.20;56.80;;;;;;5012533;28;20068;-86
2022/08/30 05:51:51;;;;;;;1.75;1.50;;;16.20;56.80;;;;;;4997374;28;20040;-86
2022/08/30 05:54:17;;;;;;;3.22;1.83;;;16.20;56.90;;;;;;5026463;28;20029;-84
2022/08/30 05:56:44;;;;;;;3.08;2.13;;;16.20;56.90;;;;;;5012414;28;20040;-91
2022/08/30 05:59:13;;;;;;;2.92;1.88;;;16.20;56.90;;;;;;5024012;28;20025;-88
2022/08/30 06:01:42;;;;;;;4.22;2.03;;;16.30;57.20;;;;;;5033984;28;20400;-90
2022/08/30 06:04:10;;;;;;;3.72;2.30;;;16.30;57.20;;;;;;5019540;28;20040;-90
2022/08/30 06:06:38;;;;;;;3.38;2.38;;;16.30;57.30;;;;;;5015070;28;20051;-88
2022/08/30 06:09:07;;;;;;;4.85;2.40;;;16.30;57.30;;;;;;5021498;28;20029;-90
2022/08/30 06:11:34;;;;;;;7.00;2.72;;;16.30;57.50;;;;;;5030101;28;20033;-88
2022/08/30 06:14:00;;;;;;;2.53;2.10;;;16.30;57.50;;;;;;5026126;28;20029;-85
2022/08/30 06:16:28;;;;;;;2.80;2.08;;;16.40;57.70;;;;;;5027867;28;20025;-88
2022/08/30 06:18:56;;;;;;;2.67;2.25;;;16.50;57.90;;;;;;5025165;28;20029;-89
2022/08/30 06:21:30;;;;;;;3.47;2.13;;;16.50;57.90;;;;;;5013836;28;20045;-87
2022/08/30 06:23:57;;;;;;;5.55;2.65;;;16.60;58.10;;;;;;4996152;28;20025;-88
2022/08/30 06:26:24;;;;;;;3.20;2.10;;;16.80;58.30;;;;;;5014338;28;20480;-89
2022/08/30 06:28:50;;;;;;;2.55;1.92;;;16.90;58.20;;;;;;5012524;28;20064;-90
2022/08/30 06:31:19;;;;;;;2.85;2.17;;;17.10;58.30;;;;;;5013072;28;20033;-89
2022/08/30 06:33:46;;;;;;;2.75;1.98;;;17.30;58.30;;;;;;5012816;28;20041;-86
2022/08/30 06:36:15;;;;;;;2.05;1.88;;;17.60;58.30;;;;;;5025663;28;20022;-88
2022/08/30 06:38:42;;;;;;;3.55;2.10;;;17.80;58.00;;;;;;5021711;28;20365;-84
2022/08/30 06:41:14;;;;;;;4.80;2.20;;;18.10;58.00;;;;;;5011228;28;20045;-87
2022/08/30 06:43:40;;;;;;;2.55;2.08;;;18.30;57.80;;;;;;5023126;28;20029;-86
2022/08/30 06:46:11;;;;;;;3.25;2.05;;;18.60;57.80;;;;;;4992152;28;20053;-88
2022/08/30 06:48:37;;;;;;;3.42;1.88;;;18.80;57.70;;;;;;5020185;28;20501;-86
2022/08/30 06:51:04;;;;;;;1.85;1.67;;;18.90;57.40;;;;;;5007446;28;20137;-91
2022/08/30 06:53:31;;;;;;;3.50;1.98;;;19.10;57.50;;;;;;5020152;28;20041;-90
2022/08/30 06:56:03;;;;;;;3.15;1.73;;;19.20;57.40;;;;;;4999777;28;20152;-90
2022/08/30 06:58:31;;;;;;;3.80;2.00;;;19.40;57.30;;;;;;5009880;28;20416;-87
2022/08/30 07:00:58;;;;;;;4.07;1.80;;;19.60;57.20;;;;;;5027897;28;20026;-91
2022/08/30 07:03:28;;;;;;;3.58;1.77;;;19.80;57.00;;;;;;4993002;28;20039;-90
2022/08/30 07:05:56;;;;;;;3.28;1.95;;;19.90;56.60;;;;;;4980074;28;20398;-88
2022/08/30 07:08:23;;;;;;;4.43;1.75;;;20.00;56.40;;;;;;5014056;28;20035;-89
2022/08/30 07:10:50;;;;;;;5.50;2.13;;;20.20;56.50;;;;;;5031110;28;20102;-87
2022/08/30 07:13:16;;;;;;;3.20;1.77;;;20.30;56.30;;;;;;5012385;28;20338;-86
2022/08/30 07:15:43;;;;;;;2.33;2.13;;;20.30;55.90;;;;;;5004263;28;20116;-86
2022/08/30 07:20:56;;;;;;;3.90;1.90;;;20.00;55.60;;;;;;5022096;28;20427;-82
2022/08/30 07:23:23;;;;;;;4.57;2.20;;;19.90;55.60;;;;;;5015810;28;20075;-85
2022/08/30 07:25:49;;;;;;;6.85;2.90;;;19.80;55.70;;;;;;4997872;28;20136;-83
2022/08/30 07:28:17;;;;;;;4.57;1.80;;;19.70;55.70;;;;;;4983739;28;20035;-85
2022/08/30 07:30:43;;;;;;;2.20;1.70;;;19.70;55.90;;;;;;4995378;28;20093;-84
2022/08/30 07:33:08;;;;;;;3.42;2.33;;;19.60;55.80;;;;;;5012064;28;20045;-82
2022/08/30 07:35:36;;;;;;;5.07;2.20;;;19.60;55.90;;;;;;5003925;28;20033;-87
2022/08/30 07:38:02;;;;;;;3.60;2.15;;;19.50;55.80;;;;;;5017844;28;20033;-87
2022/08/30 07:40:29;;;;;;;4.18;2.00;;;19.50;55.90;;;;;;4999504;28;20021;-86
2022/08/30 07:42:55;;;;;;;2.97;1.90;;;19.40;55.90;;;;;;5023494;28;20307;-89
2022/08/30 07:45:21;;;;;;;4.50;2.55;;;19.40;56.00;;;;;;4994523;28;20030;-84
2022/08/30 07:47:49;;;;;;;3.75;2.35;;;19.30;56.40;;;;;;4995932;28;20065;-85
2022/08/30 07:50:15;;;;;;;4.90;1.88;;;19.40;56.20;;;;;;5009085;28;20035;-89
2022/08/30 07:52:41;;;;;;;9.70;2.40;;;19.40;56.10;;;;;;4996020;28;20041;-81
2022/08/30 07:55:07;;;;;;;4.20;1.70;;;19.60;56.40;;;;;;5014096;28;20171;-90
2022/08/30 07:57:33;;;;;;;3.83;1.88;;;19.70;56.30;;;;;;5029673;28;20414;-86
2022/08/30 08:00:00;;;;;;;3.42;1.70;;;19.90;56.20;;;;;;4964673;28;20033;-83
2022/08/30 08:02:26;;;;;;;2.50;1.85;;;20.10;56.30;;;;;;5005201;28;20028;-87
2022/08/30 08:04:52;;;;;;;2.80;1.92;;;20.20;56.10;;;;;;5025493;28;20179;-86
2022/08/30 08:07:18;;;;;;;3.90;1.90;;;20.30;56.00;;;;;;5009904;28;20030;-86
2022/08/30 08:09:44;;;;;;;3.33;1.85;;;20.40;55.90;;;;;;5011341;28;20038;-86
2022/08/30 08:12:10;;;;;;;6.30;1.83;;;20.40;55.90;;;;;;5000693;28;20037;-89
2022/08/30 08:14:36;;;;;;;4.90;2.35;;;20.40;55.90;;;;;;5012570;28;20030;-86
2022/08/30 08:17:03;;;;;;;5.47;1.80;;;20.40;55.90;;;;;;5014896;28;20033;-83
2022/08/30 08:19:30;;;;;;;3.35;1.70;;;20.40;56.10;;;;;;5000417;28;20489;-87
2022/08/30 08:21:59;;;;;;;4.15;1.77;;;20.30;55.90;;;;;;5004684;28;20044;-86
2022/08/30 08:24:26;;;;;;;3.50;1.48;;;20.30;56.00;;;;;;5006936;28;20022;-87
2022/08/30 08:26:53;;;;;;;3.08;1.52;;;20.30;56.10;;;;;;5013361;28;20053;-85
2022/08/30 08:29:20;;;;;;;5.30;1.80;;;20.20;56.00;;;;;;5023767;28;20055;-86
2022/08/30 08:31:47;;;;;;;2.97;1.52;;;20.20;56.00;;;;;;5005358;28;20069;-87
2022/08/30 08:34:13;;;;;;;2.47;2.13;;;20.20;56.10;;;;;;4979139;28;20037;-87
2022/08/30 08:36:40;;;;;;;2.25;1.75;;;20.20;56.20;;;;;;5005261;28;20036;-86
2022/08/30 08:39:08;;;;;;;3.33;1.67;;;20.10;56.10;;;;;;5012421;28;20928;-88
2022/08/30 08:42:02;;;;;;;5.10;2.03;;;20.10;56.10;;;;;;5012393;28;20033;-88
2022/08/30 08:45:07;;;;;;;3.15;1.77;;;20.10;56.20;;;;;;5024990;28;20017;-89
2022/08/30 08:47:52;;;;;;;3.95;1.90;;;20.10;56.20;;;;;;5012409;28;20079;-88
2022/08/30 08:50:20;;;;;;;6.47;2.67;;;20.20;56.30;;;;;;5008235;28;20030;-88
2022/08/30 08:55:44;;;;;;;4.20;1.83;;;20.20;56.30;;;;;;5016931;28;20095;-86
2022/08/30 08:58:27;;;;;;;2.40;1.70;;;20.20;56.20;;;;;;5022627;28;20030;-86
2022/08/30 09:00:57;;;;;;;4.60;1.75;;;20.20;56.30;;;;;;5011911;28;20491;-85
2022/08/30 09:03:27;;;;;;;4.50;1.85;;;20.20;56.20;;;;;;4987277;28;20496;-87
2022/08/30 09:05:54;;;;;;;4.05;1.80;;;20.20;56.20;;;;;;5024882;28;20029;-86
2022/08/30 09:08:22;;;;;;;3.13;1.20;;;20.30;56.40;;;;;;5008912;28;20124;-89
2022/08/30 09:11:00;;;;;;;2.85;1.70;;;20.30;56.30;;;;;;5003020;28;20030;-84
2022/08/30 09:13:30;;;;;;;10.07;2.40;;;20.30;56.30;;;;;;5023677;28;20464;-89
2022/08/30 09:15:57;;;;;;;4.78;1.98;;;20.40;56.40;;;;;;5018520;28;20033;-90
2022/08/30 09:18:44;;;;;;;2.58;1.85;;;20.40;57.00;;;;;;5039298;28;20094;-83
2022/08/30 09:21:13;;;;;;;7.57;1.98;;;20.40;56.30;;;;;;5022183;28;20128;-86
2022/08/30 09:23:48;;;;;;;4.05;2.13;;;20.50;56.40;;;;;;5010331;28;20474;-88
2022/08/30 09:26:26;;;;;;;2.58;1.40;;;20.50;56.30;;;;;;5011319;28;20025;-91
2022/08/30 09:28:53;;;;;;;8.07;2.33;;;20.60;56.40;;;;;;5022222;28;20090;-89
2022/08/30 09:31:25;;;;;;;3.78;1.55;;;20.60;56.30;;;;;;5011674;28;20120;-90
2022/08/30 09:34:04;;;;;;;3.45;1.48;;;20.60;56.30;;;;;;4978529;28;20220;-90
2022/08/30 09:36:38;;;;;;;3.63;2.30;;;20.70;56.40;;;;;;5020239;28;20035;-91
2022/08/30 09:39:14;;;;;;;4.43;1.80;;;20.70;56.30;;;;;;5029865;28;20029;-88
2022/08/30 09:41:43;;;;;;;3.60;1.60;;;20.90;56.50;;;;;;5021617;28;20026;-91
2022/08/30 09:44:19;;;;;;;4.65;1.95;;;21.10;56.50;;;;;;5021247;28;20033;-89
2022/08/30 09:46:49;;;;;;;7.00;2.25;;;21.20;56.40;;;;;;5023677;28;20053;-89
2022/08/30 09:49:40;;;;;;;2.85;1.83;;;21.40;56.30;;;;;;5001881;28;20635;-88
2022/08/30 09:52:38;;;;;;;3.85;1.67;;;21.50;56.10;;;;;;5022773;28;20030;-87
2022/08/30 09:55:15;;;;;;;4.50;1.60;;;21.60;55.90;;;;;;5001298;28;20044;-86
2022/08/30 09:58:00;;;;;;;3.67;1.85;;;21.70;55.90;;;;;;5013489;28;20035;-85
2022/08/30 10:00:30;;;;;;;3.53;1.40;;;21.70;55.70;;;;;;5015824;28;20065;-88
2022/08/30 10:03:23;;;;;;;2.63;1.50;;;21.80;55.80;;;;;;5021891;28;20447;-84
2022/08/30 10:06:23;;;;;;;3.85;1.50;;;21.80;55.70;;;;;;4986332;28;20111;-86
2022/08/30 10:08:59;;;;;;;4.53;1.63;;;21.90;55.70;;;;;;4985444;28;20022;-85
2022/08/30 10:11:38;;;;;;;4.47;1.70;;;22.10;55.80;;;;;;4998474;28;20123;-88
2022/08/30 10:14:24;;;;;;;4.88;1.58;;;22.20;55.60;;;;;;5022911;28;20376;-86
2022/08/30 10:17:11;;;;;;;2.08;1.10;;;22.40;55.60;;;;;;4998643;28;20446;-88
2022/08/30 10:20:05;;;;;;;4.28;1.70;;;22.60;55.40;;;;;;5018180;28;20049;-88
2022/08/30 10:22:45;;;;;;;4.70;1.90;;;22.80;55.40;;;;;;4992812;28;20034;-84
2022/08/30 10:25:21;;;;;;;5.50;1.50;;;23.00;55.30;;;;;;5012315;28;20035;-89
2022/08/30 10:28:06;;;;;;;4.28;1.88;;;23.00;55.00;;;;;;5034218;28;20090;-88
2022/08/30 10:30:37;;;;;;;3.83;1.92;;;23.20;54.90;;;;;;5027793;28;20060;-89
2022/08/30 10:33:19;;;;;;;4.10;1.50;;;23.30;54.80;;;;;;5009727;28;20084;-89
2022/08/30 10:35:51;;;;;;;4.83;1.80;;;23.50;54.80;;;;;;5020673;28;20037;-88
2022/08/30 10:38:25;;;;;;;3.08;2.05;;;23.70;54.80;;;;;;4996637;28;20025;-91
2022/08/30 10:41:15;;;;;;;5.40;1.85;;;23.80;54.60;;;;;;5026454;28;20409;-87
2022/08/30 10:44:12;;;;;;;5.28;2.05;;;23.90;54.40;;;;;;5007785;28;20275;-88
2022/08/30 10:47:02;;;;;;;6.82;2.00;;;24.10;54.20;;;;;;5021419;28;20064;-87
2022/08/30 10:49:32;;;;;;;6.35;1.42;;;24.20;54.00;;;;;;5018786;28;20108;-87
2022/08/30 10:52:22;;;;;;;2.38;1.73;;;24.40;54.30;;;;;;5025789;28;20041;-88
2022/08/30 10:54:59;;;;;;;3.78;1.70;;;24.40;54.20;;;;;;5016850;28;20032;-87
2022/08/30 10:57:27;;;;;;;5.03;2.13;;;24.50;54.30;;;;;;4994357;28;20033;-84
2022/08/30 11:00:07;;;;;;;8.52;1.70;;;24.50;54.20;;;;;;5011595;28;20249;-85
2022/08/30 11:03:03;;;;;;;5.13;1.65;;;24.60;54.10;;;;;;5014481;28;20036;-87
2022/08/30 11:05:46;;;;;;;3.67;1.55;;;24.80;54.20;;;;;;5026994;28;20033;-86
2022/08/30 11:08:51;;;;;;;5.60;1.85;;;24.90;54.10;;;;;;5025773;28;20021;-85
2022/08/30 11:11:31;;;;;;;2.78;1.33;;;25.10;53.90;;;;;;5009327;28;20147;-93
2022/08/30 11:14:02;;;;;;;4.15;1.80;;;25.30;53.70;;;;;;5026582;28;20029;-90
2022/08/30 11:16:44;;;;;;;4.30;1.73;;;25.50;53.50;;;;;;5019361;28;20051;-91
2022/08/30 11:19:36;;;;;;;1.98;1.17;;;25.60;53.20;;;;;;5014060;28;20021;-89
2022/08/30 11:22:15;;;;;;;5.15;1.88;;;25.80;53.00;;;;;;5002501;28;20516;-91
2022/08/30 11:25:08;;;;;;;3.95;1.33;;;26.00;52.70;;;;;;5026493;28;20033;-92
2022/08/30 11:27:41;;;;;;;2.65;1.40;;;26.10;52.40;;;;;;4996833;28;20777;-91
2022/08/30 11:30:25;;;;;;;3.33;1.73;;;26.30;52.30;;;;;;5026745;28;20041;-90
2022/08/30 11:33:09;;;;;;;2.65;1.20;;;26.40;52.00;;;;;;5015899;28;20047;-88
2022/08/30 11:35:51;;;;;;;4.63;1.40;;;26.60;51.80;;;;;;5012199;28;20038;-87
2022/08/30 11:38:25;;;;;;;2.42;1.23;;;26.70;51.60;;;;;;5011484;28;20578;-88
2022/08/30 11:41:06;;;;;;;3.03;1.27;;;26.80;51.30;;;;;;4991882;28;20029;-87
2022/08/30 11:43:41;;;;;;;2.67;1.20;;;26.90;51.00;;;;;;4994690;28;20090;-86
2022/08/30 11:46:18;;;;;;;3.00;1.40;;;27.00;51.10;;;;;;5014680;28;20042;-84
2022/08/30 11:48:50;;;;;;;4.18;1.50;;;27.10;50.70;;;;;;4995381;28;20029;-89
2022/08/30 11:51:22;;;;;;;3.40;1.35;;;27.20;50.70;;;;;;4996000;28;20472;-88
2022/08/30 11:53:57;;;;;;;4.80;1.70;;;27.10;50.40;;;;;;5025525;28;20536;-86
2022/08/30 11:56:48;;;;;;;3.92;1.70;;;27.20;50.30;;;;;;5024540;28;20025;-86
2022/08/30 11:59:34;;;;;;;2.83;1.30;;;27.30;50.30;;;;;;5002587;28;20033;-85
2022/08/30 12:02:00;;;;;;;2.42;1.17;;;27.50;49.90;;;;;;5011105;28;20041;-88
2022/08/30 12:04:55;;;;;;;3.03;1.13;;;27.60;49.80;;;;;;5001947;28;20075;-86
2022/08/30 12:07:59;;;;;;;4.00;1.55;;;27.70;49.40;;;;;;5013785;28;20026;-87
2022/08/30 12:10:37;;;;;;;3.13;1.20;;;27.80;49.10;;;;;;4994970;28;20034;-87
2022/08/30 12:13:04;;;;;;;3.72;1.27;;;27.80;49.10;;;;;;4997309;28;20103;-91
2022/08/30 12:15:56;;;;;;;3.50;1.20;;;27.90;49.80;;;;;;5019629;28;20510;-92
2022/08/30 12:18:35;;;;;;;3.38;1.40;;;27.90;48.80;;;;;;5006322;28;20029;-91
2022/08/30 12:21:14;;;;;;;2.50;1.30;;;28.00;48.90;;;;;;5013353;28;20039;-91
2022/08/30 12:24:02;;;;;;;1.80;1.02;;;28.10;48.90;;;;;;5014086;28;20179;-91
2022/08/30 12:26:36;;;;;;;2.10;1.30;;;28.20;48.70;;;;;;4999947;28;20062;-90
2022/08/30 12:29:08;;;;;;;2.35;1.65;;;28.40;48.60;;;;;;5007057;28;20040;-92
2022/08/30 12:31:43;;;;;;;1.63;1.02;;;28.50;48.30;;;;;;5016405;28;20049;-91
2022/08/30 12:34:25;;;;;;;3.25;1.50;;;28.50;48.10;;;;;;5011340;28;20021;-91
2022/08/30 12:36:59;;;;;;;1.13;0.73;;;28.70;48.00;;;;;;4998531;28;20593;-84
2022/08/30 12:39:32;;;;;;;1.80;1.23;;;28.70;47.80;;;;;;5012503;28;20017;-88
2022/08/30 12:42:23;;;;;;;1.88;1.20;;;28.70;47.60;;;;;;4996615;28;20396;-85
2022/08/30 12:44:52;;;;;;;1.10;1.00;;;28.70;47.40;;;;;;5016975;28;20026;-88
2022/08/30 12:47:24;;;;;;;3.58;1.60;;;28.70;47.50;;;;;;5023884;28;20349;-90
2022/08/30 12:49:51;;;;;;;4.90;1.60;;;28.80;47.40;;;;;;5024542;28;20052;-89
2022/08/30 12:52:39;;;;;;;3.72;1.27;;;28.70;47.20;;;;;;5015286;28;20582;-86
2022/08/30 12:55:29;;;;;;;3.20;1.50;;;28.80;47.00;;;;;;5026773;28;20026;-87
2022/08/30 12:58:06;;;;;;;2.78;1.20;;;28.80;46.90;;;;;;4995210;28;20041;-86
2022/08/30 13:00:37;;;;;;;2.42;1.20;;;28.90;46.90;;;;;;5013864;28;20078;-86
2022/08/30 13:03:22;;;;;;;1.90;1.20;;;28.90;47.00;;;;;;5000457;28;20046;-89
2022/08/30 13:05:50;;;;;;;2.92;1.20;;;28.90;46.80;;;;;;5010000;28;20037;-86
2022/08/30 13:08:35;;;;;;;2.00;1.00;;;29.00;46.80;;;;;;4998713;28;20057;-85
2022/08/30 13:11:01;;;;;;;3.58;1.42;;;29.00;46.60;;;;;;5011048;28;20076;-86
2022/08/30 13:13:30;;;;;;;3.22;1.38;;;29.10;46.70;;;;;;5028173;28;20044;-87
2022/08/30 13:15:56;;;;;;;2.33;1.60;;;29.30;46.60;;;;;;5011338;28;20036;-88
2022/08/30 13:18:28;;;;;;;2.53;1.20;;;29.30;46.30;;;;;;5013816;28;20025;-88